createdAt,value
2019-03-31T00:00:43.722Z,4.5
2019-03-31T00:01:50.657Z,4.5
2019-03-31T00:02:57.859Z,4.5
2019-03-31T00:04:05.066Z,4.4
2019-03-31T00:05:11.991Z,4.4
2019-03-31T00:06:19.193Z,4.4
2019-03-31T00:07:26.392Z,4.4
2019-03-31T00:08:33.595Z,4.4
2019-03-31T00:09:40.795Z,4.4
2019-03-31T00:10:47.991Z,4.3
2019-03-31T00:11:55.198Z,4.3
2019-03-31T00:13:02.404Z,4.3
2019-03-31T00:14:09.329Z,4.3
2019-03-31T00:15:16.534Z,4.3
2019-03-31T00:16:23.733Z,4.3
2019-03-31T00:17:30.935Z,4.2
2019-03-31T00:18:38.183Z,4.2
2019-03-31T00:19:45.382Z,4.2
2019-03-31T00:20:52.596Z,4.2
2019-03-31T00:21:59.800Z,4.2
2019-03-31T00:23:06.997Z,4.2
2019-03-31T00:24:14.195Z,4.1
2019-03-31T00:25:21.411Z,4.2
2019-03-31T00:26:28.670Z,4.2
2019-03-31T00:27:50.518Z,4.2
2019-03-31T00:28:57.722Z,4.1
2019-03-31T00:30:04.923Z,4.1
2019-03-31T00:31:22.901Z,4.1
2019-03-31T00:32:30.152Z,4.1
2019-03-31T00:33:36.807Z,4
2019-03-31T00:34:44.021Z,4
2019-03-31T00:35:51.228Z,4
2019-03-31T00:36:58.152Z,4
2019-03-31T00:38:05.351Z,4
2019-03-31T00:39:12.552Z,4
2019-03-31T00:40:19.752Z,4.1
2019-03-31T00:41:26.680Z,4.1
2019-03-31T00:42:33.882Z,4
2019-03-31T00:43:40.808Z,4
2019-03-31T00:44:48.005Z,3.9
2019-03-31T00:45:54.663Z,4
2019-03-31T00:47:02.894Z,3.9
2019-03-31T00:48:10.089Z,4
2019-03-31T00:49:17.291Z,4
2019-03-31T00:50:24.495Z,4
2019-03-31T00:51:31.696Z,3.9
2019-03-31T00:52:38.894Z,3.9
2019-03-31T00:53:45.825Z,3.8
2019-03-31T00:54:52.754Z,3.8
2019-03-31T00:55:59.987Z,3.8
2019-03-31T00:57:07.187Z,3.7
2019-03-31T00:58:14.117Z,3.7
2019-03-31T00:59:21.314Z,3.8
2019-03-31T01:00:28.516Z,3.8
2019-03-31T01:01:37.323Z,3.8
2019-03-31T01:02:44.513Z,3.8
2019-03-31T01:03:51.436Z,3.8
2019-03-31T01:04:58.364Z,3.8
2019-03-31T01:06:05.561Z,3.7
2019-03-31T01:07:12.486Z,3.6
2019-03-31T01:08:19.148Z,3.6
2019-03-31T01:09:26.349Z,3.6
2019-03-31T01:10:33.283Z,3.6
2019-03-31T01:11:40.268Z,3.6
2019-03-31T01:12:47.482Z,3.6
2019-03-31T01:13:54.685Z,3.6
2019-03-31T01:15:01.607Z,3.6
2019-03-31T01:16:08.805Z,3.6
2019-03-31T01:17:19.563Z,3.6
2019-03-31T01:18:26.765Z,3.7
2019-03-31T01:19:33.733Z,3.7
2019-03-31T01:20:40.661Z,3.6
2019-03-31T01:21:47.592Z,3.6
2019-03-31T01:22:54.795Z,3.6
2019-03-31T01:24:01.998Z,3.6
2019-03-31T01:25:09.199Z,3.6
2019-03-31T01:26:16.393Z,3.6
2019-03-31T01:27:23.623Z,3.6
2019-03-31T01:28:30.820Z,3.6
2019-03-31T01:29:38.021Z,3.6
2019-03-31T01:30:44.956Z,3.5
2019-03-31T01:31:52.153Z,3.4
2019-03-31T01:32:59.071Z,3.4
2019-03-31T01:34:06.269Z,3.4
2019-03-31T01:35:13.476Z,3.4
2019-03-31T01:36:20.674Z,3.4
2019-03-31T01:37:27.871Z,3.4
2019-03-31T01:38:35.072Z,3.4
2019-03-31T01:39:42.270Z,3.4
2019-03-31T01:40:49.471Z,3.4
2019-03-31T01:41:56.666Z,3.4
2019-03-31T01:43:03.870Z,3.4
2019-03-31T01:44:11.072Z,3.4
2019-03-31T01:45:18.279Z,3.4
2019-03-31T01:46:25.476Z,3.3
2019-03-31T01:47:32.403Z,3.3
2019-03-31T01:48:39.322Z,3.3
2019-03-31T01:49:46.522Z,3.3
2019-03-31T01:50:53.721Z,3.3
2019-03-31T01:52:00.920Z,3.3
2019-03-31T01:53:08.122Z,3.3
2019-03-31T01:54:15.325Z,3.3
2019-03-31T01:55:22.544Z,3.3
2019-03-31T01:56:29.752Z,3.3
2019-03-31T01:57:36.965Z,3.3
2019-03-31T01:58:43.972Z,3.2
2019-03-31T01:59:50.900Z,3.2
2019-03-31T02:00:58.314Z,3.2
2019-03-31T02:02:05.510Z,3.2
2019-03-31T02:03:12.709Z,3.3
2019-03-31T02:04:19.910Z,3.2
2019-03-31T02:05:27.170Z,3.2
2019-03-31T02:06:34.088Z,3.2
2019-03-31T02:07:41.348Z,3.2
2019-03-31T02:08:47.996Z,3.2
2019-03-31T02:09:55.196Z,3.1
2019-03-31T02:11:02.093Z,3.1
2019-03-31T02:12:09.023Z,3.1
2019-03-31T02:13:16.223Z,3.1
2019-03-31T02:14:23.417Z,3.1
2019-03-31T02:15:30.620Z,3.1
2019-03-31T02:16:37.556Z,3.1
2019-03-31T02:17:44.766Z,3.1
2019-03-31T02:18:52.023Z,3
2019-03-31T02:19:59.217Z,3
2019-03-31T02:21:06.593Z,3
2019-03-31T02:22:13.798Z,3
2019-03-31T02:23:20.992Z,3
2019-03-31T02:24:27.918Z,2.9
2019-03-31T02:25:35.120Z,2.9
2019-03-31T02:26:42.327Z,2.9
2019-03-31T02:27:49.519Z,2.9
2019-03-31T02:28:56.718Z,2.9
2019-03-31T02:30:03.929Z,2.9
2019-03-31T02:31:11.302Z,2.9
2019-03-31T02:32:25.088Z,2.9
2019-03-31T02:33:32.133Z,2.9
2019-03-31T02:34:39.328Z,2.9
2019-03-31T02:35:46.528Z,2.9
2019-03-31T02:36:53.839Z,2.8
2019-03-31T02:38:01.027Z,2.8
2019-03-31T02:39:08.232Z,2.8
2019-03-31T02:40:15.439Z,2.9
2019-03-31T02:41:22.648Z,2.9
2019-03-31T02:42:29.944Z,2.9
2019-03-31T02:43:36.867Z,2.9
2019-03-31T02:44:43.794Z,2.9
2019-03-31T02:45:50.992Z,2.9
2019-03-31T02:46:58.192Z,2.8
2019-03-31T02:48:05.388Z,2.8
2019-03-31T02:49:12.593Z,2.7
2019-03-31T02:50:19.794Z,2.7
2019-03-31T02:51:26.991Z,2.7
2019-03-31T02:52:33.634Z,2.7
2019-03-31T02:53:40.843Z,2.7
2019-03-31T02:54:48.055Z,2.6
2019-03-31T02:55:55.249Z,2.6
2019-03-31T02:57:02.181Z,2.6
2019-03-31T02:58:09.114Z,2.6
2019-03-31T02:59:16.321Z,2.6
2019-03-31T03:00:23.518Z,2.6
2019-03-31T03:01:30.714Z,2.5
2019-03-31T03:02:42.849Z,2.6
2019-03-31T03:03:50.078Z,2.6
2019-03-31T03:04:57.286Z,2.5
2019-03-31T03:06:04.488Z,2.5
2019-03-31T03:07:11.702Z,2.5
2019-03-31T03:08:18.900Z,2.6
2019-03-31T03:09:26.124Z,2.5
2019-03-31T03:10:33.322Z,2.6
2019-03-31T03:11:40.551Z,2.5
2019-03-31T03:12:47.748Z,2.6
2019-03-31T03:13:54.676Z,2.6
2019-03-31T03:15:01.895Z,2.6
2019-03-31T03:16:09.083Z,2.6
2019-03-31T03:17:16.282Z,2.5
2019-03-31T03:18:23.481Z,2.5
2019-03-31T03:19:30.411Z,2.5
2019-03-31T03:20:37.624Z,2.5
2019-03-31T03:21:44.825Z,2.5
2019-03-31T03:22:52.035Z,2.5
2019-03-31T03:23:58.696Z,2.5
2019-03-31T03:25:05.580Z,2.5
2019-03-31T03:26:12.790Z,2.4
2019-03-31T03:27:19.982Z,2.4
2019-03-31T03:28:26.906Z,2.4
2019-03-31T03:29:33.837Z,2.4
2019-03-31T03:30:41.563Z,2.4
2019-03-31T03:31:48.723Z,2.4
2019-03-31T03:33:17.782Z,2.4
2019-03-31T03:34:26.366Z,2.4
2019-03-31T03:35:33.565Z,2.3
2019-03-31T03:36:44.019Z,2.3
2019-03-31T03:37:51.214Z,2.3
2019-03-31T03:38:58.137Z,2.2
2019-03-31T03:40:05.068Z,2.2
2019-03-31T03:41:12.271Z,2.2
2019-03-31T03:42:19.466Z,2.2
2019-03-31T03:43:26.445Z,2.2
2019-03-31T03:44:33.649Z,2.2
2019-03-31T03:45:40.853Z,2.3
2019-03-31T03:46:48.042Z,2.3
2019-03-31T03:47:55.239Z,2.3
2019-03-31T03:49:02.259Z,2.3
2019-03-31T03:50:09.858Z,2.3
2019-03-31T03:51:17.057Z,2.2
2019-03-31T03:52:24.277Z,2.2
2019-03-31T03:53:31.470Z,2.2
2019-03-31T03:54:38.675Z,2.2
2019-03-31T03:55:45.878Z,2.2
2019-03-31T03:56:53.076Z,2.2
2019-03-31T03:57:59.998Z,2.2
2019-03-31T03:59:07.202Z,2.2
2019-03-31T04:00:14.525Z,2.2
2019-03-31T04:01:21.732Z,2.2
2019-03-31T04:02:28.650Z,2.2
2019-03-31T04:03:35.581Z,2.2
2019-03-31T04:04:42.786Z,2.1
2019-03-31T04:05:49.715Z,2.1
2019-03-31T22:00:06.037Z,5.7
2019-03-31T22:01:13.245Z,5.7
2019-03-31T22:02:20.443Z,5.7
2019-03-31T22:03:27.684Z,5.7
2019-03-31T22:04:34.887Z,5.6
2019-03-31T22:05:42.141Z,5.6
2019-03-31T22:06:49.350Z,5.5
2019-03-31T22:07:56.549Z,5.5
2019-03-31T22:09:03.747Z,5.4
2019-03-31T22:10:10.951Z,5.4
2019-03-31T22:11:18.150Z,5.4
2019-03-31T22:12:25.081Z,5.4
2019-03-31T22:13:32.343Z,5.3
2019-03-31T22:14:39.278Z,5.3
2019-03-31T22:15:46.480Z,5.2
2019-03-31T22:16:53.678Z,5.2
2019-03-31T22:18:00.877Z,5.2
2019-03-31T22:19:08.080Z,5.2
2019-03-31T22:20:15.280Z,5.2
2019-03-31T22:21:22.479Z,5.1
2019-03-31T22:22:29.411Z,5.1
2019-03-31T22:23:36.668Z,5.1
2019-03-31T22:24:43.589Z,5
2019-03-31T22:25:50.786Z,5
2019-03-31T22:26:57.990Z,5
2019-03-31T22:28:05.196Z,5
2019-03-31T22:29:12.128Z,5
2019-03-31T22:30:19.329Z,5
2019-03-31T22:31:26.271Z,4.9
2019-03-31T22:32:33.208Z,4.8
2019-03-31T22:33:40.406Z,4.8
2019-03-31T22:34:47.609Z,4.8
2019-03-31T22:35:54.814Z,4.8
2019-03-31T22:37:02.013Z,4.8
2019-03-31T22:38:09.216Z,4.7
2019-03-31T22:39:16.419Z,4.7
2019-03-31T22:40:23.620Z,4.7
2019-03-31T22:41:30.824Z,4.6
2019-03-31T22:42:38.025Z,4.7
2019-03-31T22:43:45.231Z,4.6
2019-03-31T22:44:52.441Z,4.6
2019-03-31T22:45:59.653Z,4.6
2019-03-31T22:47:06.857Z,4.6
2019-03-31T22:48:13.789Z,4.6
2019-03-31T22:49:20.725Z,4.6
2019-03-31T22:50:27.655Z,4.5
2019-03-31T22:51:34.874Z,4.5
2019-03-31T22:52:42.070Z,4.5
2019-03-31T22:53:49.269Z,4.5
2019-03-31T22:54:56.465Z,4.4
2019-03-31T22:56:03.671Z,4.4
2019-03-31T22:57:10.883Z,4.4
2019-03-31T22:58:18.078Z,4.3
2019-03-31T22:59:25.279Z,4.3
2019-03-31T23:00:32.479Z,4.3
2019-03-31T23:01:39.380Z,4.2
2019-03-31T23:02:46.589Z,4.2
2019-03-31T23:03:53.788Z,4.2
2019-03-31T23:05:00.988Z,4.1
2019-03-31T23:06:07.919Z,4.1
2019-03-31T23:07:15.131Z,4.1
2019-03-31T23:08:22.332Z,4
2019-03-31T23:09:29.259Z,4.1
2019-03-31T23:10:36.183Z,4.1
2019-03-31T23:11:43.384Z,4.1
2019-03-31T23:12:50.613Z,4.1
2019-03-31T23:13:57.813Z,4
2019-03-31T23:15:05.013Z,4
2019-03-31T23:16:12.214Z,4
2019-03-31T23:17:19.417Z,4
2019-03-31T23:18:26.626Z,4
2019-03-31T23:19:33.831Z,4
2019-03-31T23:20:41.031Z,3.9
2019-03-31T23:21:48.234Z,3.9
2019-03-31T23:22:55.437Z,3.8
2019-03-31T23:24:02.637Z,3.8
2019-03-31T23:25:09.855Z,3.8
2019-03-31T23:26:16.783Z,3.7
2019-03-31T23:27:23.706Z,3.7
2019-03-31T23:28:30.942Z,3.7
2019-03-31T23:29:38.145Z,3.7
2019-03-31T23:30:45.342Z,3.7
2019-03-31T23:31:52.545Z,3.7
2019-03-31T23:32:59.747Z,3.7
2019-03-31T23:34:06.949Z,3.7
2019-03-31T23:35:14.149Z,3.6
2019-03-31T23:36:21.350Z,3.6
2019-03-31T23:37:28.550Z,3.6
2019-03-31T23:38:35.752Z,3.6
2019-03-31T23:39:42.962Z,3.5
2019-03-31T23:40:49.616Z,3.6
2019-03-31T23:41:56.611Z,3.5
2019-03-31T23:43:03.813Z,3.5
2019-03-31T23:44:11.016Z,3.5
2019-03-31T23:45:18.215Z,3.5
2019-03-31T23:46:25.414Z,3.5
2019-03-31T23:47:32.074Z,3.5
2019-03-31T23:48:39.277Z,3.5
2019-03-31T23:49:46.474Z,3.5
2019-03-31T23:50:53.670Z,3.5
2019-03-31T23:52:00.874Z,3.5
2019-03-31T23:53:08.074Z,3.6
2019-03-31T23:54:15.277Z,3.5
2019-03-31T23:55:22.474Z,3.5
2019-03-31T23:56:29.407Z,3.5
2019-03-31T23:57:36.605Z,3.5
2019-03-31T23:58:43.809Z,3.5
2019-03-31T23:59:51.008Z,3.5
